createdAt,value
2017-07-26T00:02:20.908Z,100141.20
2017-07-26T00:04:48.633Z,100140.55
2017-07-26T00:07:16.325Z,100139.16
2017-07-26T00:09:44.137Z,100138.53
2017-07-26T00:12:11.897Z,100127.72
2017-07-26T00:14:39.724Z,100134.12
2017-07-26T00:17:07.497Z,100130.15
2017-07-26T00:19:35.315Z,100134.98
2017-07-26T00:22:03.084Z,100138.74
2017-07-26T00:24:30.896Z,100136.17
2017-07-26T00:26:58.663Z,100140.00
2017-07-26T00:29:26.423Z,100129.63
2017-07-26T00:31:54.284Z,100139.45
2017-07-26T00:34:22.090Z,100136.88
2017-07-26T00:36:49.905Z,100131.69
2017-07-26T00:39:17.680Z,100134.08
2017-07-26T00:41:45.484Z,100129.28
2017-07-26T00:44:13.251Z,100130.89
2017-07-26T00:46:41.089Z,100130.31
2017-07-26T00:49:08.876Z,100126.48
2017-07-26T00:51:36.708Z,100133.50
2017-07-26T00:54:04.423Z,100133.50
2017-07-26T00:56:32.123Z,100130.48
2017-07-26T00:58:59.953Z,100126.92
2017-07-26T01:01:27.721Z,100125.69
2017-07-26T01:03:55.575Z,100130.14
2017-07-26T01:06:23.382Z,100127.53
2017-07-26T01:08:51.208Z,100128.77
2017-07-26T01:11:18.981Z,100129.45
2017-07-26T01:13:46.825Z,100131.84
2017-07-26T01:16:14.584Z,100124.86
2017-07-26T01:18:47.750Z,100131.70
2017-07-26T01:21:15.550Z,100124.45
2017-07-26T01:23:43.355Z,100129.50
2017-07-26T01:26:11.198Z,100127.89
2017-07-26T01:28:38.984Z,100129.71
2017-07-26T01:31:06.874Z,100125.09
2017-07-26T01:33:34.672Z,100129.13
2017-07-26T01:36:02.554Z,100129.13
2017-07-26T01:38:30.336Z,100124.68
2017-07-26T01:40:58.207Z,100128.72
2017-07-26T01:43:25.996Z,100125.70
2017-07-26T01:45:53.807Z,100131.46
2017-07-26T01:48:21.635Z,100132.31
2017-07-26T01:50:49.341Z,100134.88
2017-07-26T01:53:17.184Z,100135.05
2017-07-26T01:55:44.984Z,100135.64
2017-07-26T01:58:12.852Z,100138.63
2017-07-26T02:00:40.611Z,100140.64
2017-07-26T02:03:08.451Z,100130.20
2017-07-26T02:05:36.242Z,100138.63
2017-07-26T02:08:04.023Z,100141.66
2017-07-26T02:10:31.860Z,100138.68
2017-07-26T02:12:59.656Z,100127.45
2017-07-26T02:15:27.521Z,100139.70
2017-07-26T02:17:55.221Z,100141.11
2017-07-26T02:20:23.059Z,100137.14
2017-07-26T02:22:50.857Z,100145.08
2017-07-26T02:25:18.640Z,100150.70
2017-07-26T02:27:46.478Z,100142.52
2017-07-26T02:30:14.239Z,100145.32
2017-07-26T02:32:42.096Z,100145.49
2017-07-26T02:35:09.886Z,100150.52
2017-07-26T02:37:37.709Z,100153.73
2017-07-26T02:40:05.474Z,100160.00
2017-07-26T02:42:33.264Z,100164.80
2017-07-26T02:45:01.101Z,100154.73
2017-07-26T02:47:28.911Z,100164.00
2017-07-26T02:49:56.646Z,100168.01
2017-07-26T02:52:24.432Z,100168.80
2017-07-26T02:54:52.261Z,100175.23
2017-07-26T02:57:20.023Z,100167.02
2017-07-26T02:59:47.800Z,100169.20
2017-07-26T03:02:15.632Z,100175.23
2017-07-26T03:04:44.414Z,100170.27
2017-07-26T03:07:12.259Z,100172.28
2017-07-26T03:09:40.048Z,100169.30
2017-07-26T03:12:07.870Z,100172.86
2017-07-26T03:14:35.673Z,100175.33
2017-07-26T03:17:03.529Z,100182.14
2017-07-26T03:19:31.209Z,100173.34
2017-07-26T03:21:58.979Z,100178.98
2017-07-26T03:24:26.796Z,100184.45
2017-07-26T03:26:54.604Z,100179.60
2017-07-26T03:29:22.381Z,100177.20
2017-07-26T03:31:50.203Z,100171.59
2017-07-26T03:34:18.055Z,100165.56
2017-07-26T03:36:45.875Z,100175.63
2017-07-26T03:39:13.612Z,100172.82
2017-07-26T03:41:41.331Z,100175.05
2017-07-26T03:44:09.027Z,100179.25
2017-07-26T03:46:36.930Z,100178.26
2017-07-26T03:49:04.721Z,100179.52
2017-07-26T03:51:32.549Z,100183.32
2017-07-26T03:54:00.316Z,100180.69
2017-07-26T03:56:28.150Z,100185.07
2017-07-26T03:58:55.912Z,100183.08
2017-07-26T04:01:23.744Z,100185.48
2017-07-26T04:03:51.534Z,100182.47
2017-07-26T04:06:19.323Z,100186.30
2017-07-26T04:08:47.139Z,100190.28
2017-07-26T04:11:14.941Z,100193.32
2017-07-26T04:13:42.769Z,100194.34
2017-07-26T04:16:10.556Z,100194.96
2017-07-26T04:18:38.386Z,100193.77
2017-07-26T04:21:06.169Z,100195.55
2017-07-26T04:23:34.012Z,100191.22
2017-07-26T04:26:01.810Z,100196.63
2017-07-26T04:28:29.571Z,100199.67
2017-07-26T04:30:57.457Z,100197.89
2017-07-26T04:33:25.159Z,100200.56
2017-07-26T04:35:52.998Z,100203.78
2017-07-26T04:38:20.786Z,100210.63
2017-07-26T04:40:48.597Z,100211.03
2017-07-26T04:43:16.386Z,100214.25
2017-07-26T04:45:44.111Z,100207.23
2017-07-26T04:48:11.816Z,100213.05
2017-07-26T04:50:39.506Z,100216.23
2017-07-26T04:53:07.238Z,100225.08
2017-07-26T04:55:34.931Z,100222.27
2017-07-26T04:58:02.711Z,100222.47
2017-07-26T05:00:30.412Z,100224.11
2017-07-26T05:02:58.159Z,100221.30
2017-07-26T05:05:25.859Z,100224.76
2017-07-26T05:07:53.572Z,100219.76
2017-07-26T05:10:21.361Z,100221.40
2017-07-26T05:12:49.123Z,100222.42
2017-07-26T05:15:16.817Z,100228.07
2017-07-26T05:17:44.571Z,100221.11
2017-07-26T05:20:12.297Z,100220.50
2017-07-26T05:22:39.992Z,100224.98
2017-07-26T05:25:07.739Z,100224.80
2017-07-26T05:27:35.456Z,100222.03
2017-07-26T05:30:03.194Z,100229.17
2017-07-26T05:32:30.883Z,100225.95
2017-07-26T05:34:58.626Z,100225.40
2017-07-26T05:37:26.354Z,100226.69
2017-07-26T05:39:54.145Z,100230.17
2017-07-26T05:42:21.859Z,100233.02
2017-07-26T05:44:49.563Z,100231.47
2017-07-26T05:47:17.332Z,100235.19
2017-07-26T05:49:45.023Z,100242.24
2017-07-26T05:52:12.807Z,100246.87
2017-07-26T05:54:40.519Z,100245.73
2017-07-26T05:57:08.276Z,100237.70
2017-07-26T05:59:35.982Z,100241.37
2017-07-26T06:02:03.743Z,100245.03
2017-07-26T06:04:31.500Z,100244.88
2017-07-26T06:06:59.262Z,100249.09
2017-07-26T06:09:27.005Z,100249.91
2017-07-26T06:11:54.733Z,100251.12
2017-07-26T06:14:22.486Z,100253.43
2017-07-26T06:16:50.193Z,100248.25
2017-07-26T06:19:17.925Z,100254.05
2017-07-26T06:21:45.640Z,100254.48
2017-07-26T06:24:13.458Z,100255.54
2017-07-26T06:26:41.164Z,100253.78
2017-07-26T06:29:08.928Z,100257.65
2017-07-26T06:31:36.655Z,100256.66
2017-07-26T06:34:04.393Z,100259.81
2017-07-26T06:36:32.121Z,100256.68
2017-07-26T06:38:59.797Z,100264.37
2017-07-26T06:41:27.555Z,100252.02
2017-07-26T06:43:55.390Z,100252.45
2017-07-26T06:46:23.164Z,100255.73
2017-07-26T06:48:50.870Z,100257.05
2017-07-26T06:51:18.648Z,100254.27
2017-07-26T06:53:46.331Z,100254.23
2017-07-26T06:56:14.115Z,100257.52
2017-07-26T06:58:41.824Z,100261.23
2017-07-26T07:01:09.538Z,100255.89
2017-07-26T07:03:37.291Z,100267.64
2017-07-26T07:06:05.028Z,100264.61
2017-07-26T07:08:32.886Z,100260.98
2017-07-26T07:11:00.613Z,100262.88
2017-07-26T07:13:28.357Z,100265.25
2017-07-26T07:15:56.170Z,100265.98
2017-07-26T07:18:24.070Z,100263.17
2017-07-26T07:20:51.884Z,100262.97
2017-07-26T07:23:19.724Z,100268.31
2017-07-26T07:25:47.518Z,100262.52
2017-07-26T07:28:15.313Z,100266.48
2017-07-26T07:30:43.069Z,100264.23
2017-07-26T07:33:10.820Z,100266.98
2017-07-26T07:35:38.655Z,100270.71
2017-07-26T07:38:06.444Z,100262.83
2017-07-26T07:40:34.317Z,100262.71
2017-07-26T07:43:02.107Z,100259.12
2017-07-26T07:45:29.881Z,100260.78
2017-07-26T07:47:57.672Z,100260.14
2017-07-26T07:50:25.908Z,100258.81
2017-07-26T07:52:53.695Z,100260.48
2017-07-26T07:55:21.491Z,100252.44
2017-07-26T07:57:49.328Z,100256.22
2017-07-26T08:00:17.226Z,100257.08
2017-07-26T08:02:44.955Z,100255.25
2017-07-26T08:05:12.700Z,100258.62
2017-07-26T08:07:40.441Z,100255.27
2017-07-26T08:10:08.175Z,100261.01
2017-07-26T08:12:35.887Z,100267.63
2017-07-26T08:15:03.650Z,100274.93
2017-07-26T08:17:31.433Z,100278.85
2017-07-26T08:19:59.270Z,100285.06
2017-07-26T08:22:27.056Z,100272.25
2017-07-26T08:24:54.914Z,100283.55
2017-07-26T08:27:22.742Z,100275.66
2017-07-26T08:29:50.572Z,100275.43
2017-07-26T08:32:18.311Z,100277.61
2017-07-26T08:34:46.061Z,100286.65
2017-07-26T08:37:13.772Z,100293.52
2017-07-26T08:39:41.530Z,100286.39
2017-07-26T08:42:09.246Z,100294.09
2017-07-26T08:44:36.941Z,100299.49
2017-07-26T08:47:04.789Z,100301.82
2017-07-26T08:49:32.590Z,100295.02
2017-07-26T08:52:00.448Z,100292.14
2017-07-26T08:54:28.252Z,100296.88
2017-07-26T08:56:56.020Z,100292.95
2017-07-26T08:59:23.753Z,100297.02
2017-07-26T09:01:51.624Z,100302.72
2017-07-26T09:04:19.423Z,100302.55
2017-07-26T09:06:47.224Z,100304.80
2017-07-26T09:09:15.051Z,100304.80
2017-07-26T09:11:42.882Z,100309.13
2017-07-26T09:14:10.761Z,100307.87
2017-07-26T09:16:38.557Z,100316.02
2017-07-26T09:19:06.389Z,100320.31
2017-07-26T09:21:34.175Z,100310.70
2017-07-26T09:24:02.080Z,100315.83
2017-07-26T09:26:29.877Z,100314.34
2017-07-26T09:28:57.638Z,100306.17
2017-07-26T09:31:25.368Z,100315.72
2017-07-26T09:33:53.088Z,100322.01
2017-07-26T09:36:20.848Z,100328.12
2017-07-26T09:38:48.525Z,100328.52
2017-07-26T09:41:16.272Z,100339.78
2017-07-26T09:43:43.976Z,100342.88
2017-07-26T09:46:11.692Z,100344.61
2017-07-26T09:48:39.369Z,100338.36
2017-07-26T09:51:07.136Z,100347.25
2017-07-26T09:53:34.823Z,100349.59
2017-07-26T09:56:02.568Z,100348.91
2017-07-26T09:58:30.255Z,100354.22
2017-07-26T10:00:58.084Z,100350.19
2017-07-26T10:03:25.936Z,100351.79
2017-07-26T10:05:53.663Z,100348.85
2017-07-26T10:08:21.427Z,100354.52
2017-07-26T10:10:49.210Z,100352.32
2017-07-26T10:13:16.951Z,100358.83
2017-07-26T10:15:44.731Z,100355.44
2017-07-26T10:18:12.564Z,100363.93
2017-07-26T10:20:40.369Z,100363.75
2017-07-26T10:23:08.250Z,100373.61
2017-07-26T10:25:35.953Z,100369.59
2017-07-26T10:28:03.753Z,100373.98
2017-07-26T10:30:31.516Z,100372.82
2017-07-26T10:32:59.349Z,100373.61
2017-07-26T10:35:27.109Z,100380.58
2017-07-26T10:37:54.806Z,100378.41
2017-07-26T10:40:22.535Z,100386.70
2017-07-26T10:42:50.215Z,100385.98
2017-07-26T10:45:18.043Z,100392.53
2017-07-26T10:47:45.864Z,100391.55
2017-07-26T10:50:13.710Z,100391.86
2017-07-26T10:52:41.440Z,100398.53
2017-07-26T10:55:09.150Z,100396.17
2017-07-26T10:57:36.984Z,100402.08
2017-07-26T11:00:04.763Z,100399.18
2017-07-26T11:02:32.529Z,100400.00
2017-07-26T11:05:00.312Z,100401.23
2017-07-26T11:07:28.179Z,100396.53
2017-07-26T11:09:55.974Z,100403.33
2017-07-26T11:12:23.740Z,100397.77
2017-07-26T11:14:51.525Z,100403.91
2017-07-26T11:17:19.380Z,100403.09
2017-07-26T11:19:47.090Z,100408.09
2017-07-26T11:22:14.798Z,100401.20
2017-07-26T11:24:42.633Z,100405.97
2017-07-26T11:27:10.425Z,100406.68
2017-07-26T11:29:38.410Z,100405.81
2017-07-26T11:32:06.118Z,100408.98
2017-07-26T11:34:33.951Z,100409.80
2017-07-26T11:37:01.666Z,100403.85
2017-07-26T11:39:29.521Z,100409.29
2017-07-26T11:41:57.302Z,100405.08
2017-07-26T11:44:25.135Z,100410.37
2017-07-26T11:46:52.854Z,100402.00
2017-07-26T11:49:20.660Z,100413.39
2017-07-26T11:51:48.396Z,100409.16
2017-07-26T11:54:16.218Z,100417.53
2017-07-26T11:56:44.085Z,100413.30
2017-07-26T11:59:11.941Z,100417.55
2017-07-26T12:01:39.783Z,100421.80
2017-07-26T12:04:07.493Z,100422.21
2017-07-26T12:06:35.270Z,100423.43
2017-07-26T12:09:02.999Z,100423.84
2017-07-26T12:11:30.793Z,100427.11
2017-07-26T12:13:58.496Z,100420.69
2017-07-26T12:16:26.207Z,100417.25
2017-07-26T12:18:54.002Z,100421.33
2017-07-26T12:21:21.871Z,100412.63
2017-07-26T12:23:49.768Z,100409.39
2017-07-26T12:26:17.470Z,100415.05
2017-07-26T12:28:45.395Z,100421.98
2017-07-26T12:31:13.258Z,100419.95
2017-07-26T12:33:41.253Z,100428.44
2017-07-26T12:36:09.190Z,100429.83
2017-07-26T12:38:37.141Z,100436.55
2017-07-26T12:41:05.043Z,100434.94
2017-07-26T12:43:32.922Z,100444.88
2017-07-26T12:46:00.879Z,100449.30
2017-07-26T12:48:28.711Z,100442.78
2017-07-26T12:50:56.588Z,100449.87
2017-07-26T12:53:24.479Z,100458.77
2017-07-26T12:55:52.387Z,100453.92
2017-07-26T12:58:20.121Z,100452.30
2017-07-26T13:00:47.988Z,100454.13
2017-07-26T13:03:15.838Z,100452.53
2017-07-26T13:05:43.695Z,100455.97
2017-07-26T13:08:11.644Z,100455.55
2017-07-26T13:10:39.478Z,100449.09
2017-07-26T13:13:07.223Z,100451.52
2017-07-26T13:15:34.963Z,100443.66
2017-07-26T13:18:02.721Z,100445.29
2017-07-26T13:20:30.488Z,100444.69
2017-07-26T13:22:58.261Z,100439.81
2017-07-26T13:25:26.101Z,100438.18
2017-07-26T13:27:53.846Z,100429.09
2017-07-26T13:30:21.572Z,100433.52
2017-07-26T13:32:49.299Z,100437.98
2017-07-26T13:35:17.151Z,100436.17
2017-07-26T13:37:44.849Z,100428.86
2017-07-26T13:40:12.778Z,100428.05
2017-07-26T13:42:40.697Z,100419.09
2017-07-26T13:45:08.646Z,100423.11
2017-07-26T13:47:36.505Z,100423.91
2017-07-26T13:50:04.232Z,100423.30
2017-07-26T13:52:32.185Z,100424.65
2017-07-26T13:55:00.019Z,100421.00
2017-07-26T13:57:27.752Z,100421.23
2017-07-26T13:59:55.611Z,100422.95
2017-07-26T14:02:23.622Z,100419.36
2017-07-26T14:04:51.387Z,100421.49
2017-07-26T14:07:19.316Z,100423.06
2017-07-26T14:09:47.141Z,100425.06
2017-07-26T14:12:15.062Z,100423.20
2017-07-26T14:14:42.827Z,100425.02
2017-07-26T14:17:10.707Z,100426.81
2017-07-26T14:19:38.628Z,100428.88
2017-07-26T14:22:06.454Z,100425.48
2017-07-26T14:24:34.420Z,100422.52
2017-07-26T14:27:02.289Z,100427.60
2017-07-26T14:29:30.197Z,100416.02
2017-07-26T14:31:58.147Z,100415.45
2017-07-26T14:34:26.049Z,100415.02
2017-07-26T14:36:53.887Z,100421.48
2017-07-26T14:39:21.809Z,100420.66
2017-07-26T14:41:49.561Z,100426.31
2017-07-26T14:44:17.277Z,100426.30
2017-07-26T14:46:44.999Z,100421.88
2017-07-26T14:49:12.692Z,100422.43
2017-07-26T14:51:40.438Z,100423.44
2017-07-26T14:54:08.170Z,100421.37
2017-07-26T14:56:35.931Z,100419.11
2017-07-26T14:59:03.661Z,100417.47
2017-07-26T15:01:31.507Z,100414.06
2017-07-26T15:03:59.370Z,100419.46
2017-07-26T15:06:27.143Z,100417.23
2017-07-26T15:08:55.021Z,100413.80
2017-07-26T15:11:22.884Z,100419.47
2017-07-26T15:13:50.829Z,100422.94
2017-07-26T15:16:18.639Z,100429.01
2017-07-26T15:18:46.580Z,100428.22
2017-07-26T15:21:14.430Z,100426.19
2017-07-26T15:23:42.320Z,100429.64
2017-07-26T15:26:10.237Z,100429.84
2017-07-26T15:28:38.095Z,100433.71
2017-07-26T15:31:05.987Z,100431.87
2017-07-26T15:33:33.864Z,100434.12
2017-07-26T15:36:01.827Z,100430.88
2017-07-26T15:38:29.757Z,100435.12
2017-07-26T15:40:57.660Z,100431.50
2017-07-26T15:43:25.515Z,100429.28
2017-07-26T15:45:53.430Z,100425.44
2017-07-26T15:48:21.270Z,100427.04
2017-07-26T15:50:49.176Z,100427.26
2017-07-26T15:53:17.001Z,100426.25
2017-07-26T15:55:44.846Z,100422.17
2017-07-26T15:58:12.598Z,100425.62
2017-07-26T16:00:40.424Z,100428.06
2017-07-26T16:03:08.375Z,100427.26
2017-07-26T16:05:36.185Z,100427.05
2017-07-26T16:08:04.144Z,100426.23
2017-07-26T16:10:31.989Z,100428.06
2017-07-26T16:12:59.768Z,100431.52
2017-07-26T16:15:27.742Z,100430.69
2017-07-26T16:17:55.599Z,100428.27
2017-07-26T16:20:23.435Z,100425.62
2017-07-26T16:22:51.304Z,100426.24
2017-07-26T16:25:19.249Z,100429.66
2017-07-26T16:27:47.039Z,100437.59
2017-07-26T16:30:14.867Z,100434.35
2017-07-26T16:32:42.753Z,100436.79
2017-07-26T16:35:10.664Z,100429.28
2017-07-26T16:37:38.417Z,100426.45
2017-07-26T16:40:06.313Z,100430.71
2017-07-26T16:42:35.176Z,100432.11
2017-07-26T16:45:03.020Z,100432.33
2017-07-26T16:47:30.902Z,100433.13
2017-07-26T16:49:58.814Z,100432.33
2017-07-26T16:52:26.494Z,100435.56
2017-07-26T16:54:54.388Z,100441.85
2017-07-26T16:57:22.225Z,100434.36
2017-07-26T16:59:50.155Z,100434.97
2017-07-26T17:02:17.925Z,100441.83
2017-07-26T17:04:45.783Z,100441.83
2017-07-26T17:07:13.724Z,100444.08
2017-07-26T17:09:41.563Z,100448.73
2017-07-26T17:12:09.491Z,100444.09
2017-07-26T17:14:37.340Z,100444.09
2017-07-26T17:17:05.235Z,100442.46
2017-07-26T17:19:33.015Z,100447.67
2017-07-26T17:22:00.884Z,100456.79
2017-07-26T17:24:28.825Z,100447.26
2017-07-26T17:26:56.657Z,100450.48
2017-07-26T17:29:24.393Z,100450.87
2017-07-26T17:31:52.308Z,100454.08
2017-07-26T17:34:20.153Z,100453.08
2017-07-26T17:36:47.945Z,100456.70
2017-07-26T17:39:15.831Z,100463.17
2017-07-26T17:41:43.696Z,100461.76
2017-07-26T17:44:11.577Z,100460.73
2017-07-26T17:46:39.396Z,100462.50
2017-07-26T17:49:07.237Z,100464.33
2017-07-26T17:51:35.068Z,100465.75
2017-07-26T17:54:02.849Z,100466.44
2017-07-26T17:56:30.685Z,100466.11
2017-07-26T17:58:58.456Z,100457.23
2017-07-26T18:01:26.307Z,100467.99
2017-07-26T18:03:54.008Z,100463.92
2017-07-26T18:06:21.835Z,100465.20
2017-07-26T18:08:49.657Z,100455.50
2017-07-26T18:11:17.451Z,100456.08
2017-07-26T18:13:45.314Z,100451.08
2017-07-26T18:16:13.115Z,100455.30
2017-07-26T18:18:40.983Z,100452.14
2017-07-26T18:21:08.790Z,100456.30
2017-07-26T18:23:36.572Z,100458.16
2017-07-26T18:26:04.415Z,100466.58
2017-07-26T18:28:32.206Z,100465.11
2017-07-26T18:31:00.118Z,100462.14
2017-07-26T18:33:27.920Z,100466.83
2017-07-26T18:35:55.764Z,100467.47
2017-07-26T18:38:23.589Z,100470.77
2017-07-26T18:40:51.474Z,100465.41
2017-07-26T18:43:19.311Z,100469.98
2017-07-26T18:45:47.099Z,100463.11
2017-07-26T18:48:14.962Z,100470.19
2017-07-26T18:50:42.747Z,100464.75
2017-07-26T18:53:10.582Z,100474.52
2017-07-26T18:55:38.378Z,100477.02
2017-07-26T18:58:06.273Z,100481.18
2017-07-26T19:00:34.068Z,100487.39
2017-07-26T19:03:01.770Z,100486.86
2017-07-26T19:05:29.638Z,100490.25
2017-07-26T19:07:57.413Z,100483.53
2017-07-26T19:10:25.337Z,100497.53
2017-07-26T19:12:53.128Z,100497.05
2017-07-26T19:15:20.893Z,100500.66
2017-07-26T19:17:48.696Z,100506.41
2017-07-26T19:20:16.576Z,100502.95
2017-07-26T19:22:44.385Z,100500.59
2017-07-26T19:25:12.149Z,100500.09
2017-07-26T19:27:39.833Z,100509.10
2017-07-26T19:30:07.620Z,100502.35
2017-07-26T19:32:35.478Z,100507.70
2017-07-26T19:35:03.260Z,100509.23
2017-07-26T19:37:31.105Z,100503.11
2017-07-26T19:39:59.953Z,100512.35
2017-07-26T19:42:27.795Z,100511.36
2017-07-26T19:44:55.599Z,100515.58
2017-07-26T19:47:23.412Z,100513.52
2017-07-26T19:49:51.153Z,100522.01
2017-07-26T19:52:18.945Z,100517.98
2017-07-26T19:54:46.782Z,100526.23
2017-07-26T19:57:14.579Z,100521.25
2017-07-26T19:59:42.416Z,100520.69
2017-07-26T20:02:10.243Z,100526.88
2017-07-26T20:04:38.115Z,100528.49
2017-07-26T20:07:05.821Z,100527.59
2017-07-26T20:09:33.589Z,100526.78
2017-07-26T20:12:01.889Z,100531.41
2017-07-26T20:14:29.685Z,100529.92
2017-07-26T20:16:57.444Z,100541.13
2017-07-26T20:19:25.226Z,100546.63
2017-07-26T20:21:53.036Z,100547.33
2017-07-26T20:24:20.906Z,100549.06
2017-07-26T20:26:48.756Z,100550.83
2017-07-26T20:29:16.547Z,100543.28
2017-07-26T20:31:44.416Z,100549.72
2017-07-26T20:34:12.266Z,100551.38
2017-07-26T20:36:39.964Z,100542.37
2017-07-26T20:39:07.750Z,100540.84
2017-07-26T20:41:35.493Z,100541.80
2017-07-26T20:44:03.259Z,100542.98
2017-07-26T20:46:30.950Z,100545.02
2017-07-26T20:48:58.840Z,100548.26
2017-07-26T20:51:26.616Z,100546.90
2017-07-26T20:53:54.425Z,100547.91
2017-07-26T20:56:22.140Z,100550.09
2017-07-26T20:58:49.886Z,100545.87
2017-07-26T21:01:17.632Z,100544.38
2017-07-26T21:03:45.419Z,100554.03
2017-07-26T21:06:13.177Z,100551.68
2017-07-26T21:08:40.870Z,100554.53
2017-07-26T21:11:08.718Z,100553.00
2017-07-26T21:13:36.507Z,100549.74
2017-07-26T21:16:04.380Z,100555.83
2017-07-26T21:18:32.151Z,100552.20
2017-07-26T21:20:59.983Z,100556.98
2017-07-26T21:23:27.837Z,100554.83
2017-07-26T21:25:55.660Z,100550.69
2017-07-26T21:28:23.551Z,100548.87
2017-07-26T21:30:51.354Z,100548.55
2017-07-26T21:33:19.278Z,100548.55
2017-07-26T21:35:47.072Z,100541.64
2017-07-26T21:38:14.927Z,100540.47
2017-07-26T21:40:42.735Z,100541.33
2017-07-26T21:43:10.529Z,100540.44
2017-07-26T21:45:38.275Z,100543.42
2017-07-26T21:48:06.089Z,100543.30
2017-07-26T21:50:33.941Z,100545.17
2017-07-26T21:53:01.752Z,100554.48
2017-07-26T21:55:29.641Z,100555.05
2017-07-26T21:57:57.454Z,100550.20
2017-07-26T22:00:25.315Z,100545.45
2017-07-26T22:02:53.094Z,100548.22
2017-07-26T22:05:20.967Z,100551.43
2017-07-26T22:07:48.787Z,100549.19
2017-07-26T22:10:16.593Z,100551.52
2017-07-26T22:12:44.436Z,100545.92
2017-07-26T22:15:12.250Z,100547.59
2017-07-26T22:17:40.009Z,100549.56
2017-07-26T22:20:07.726Z,100544.23
2017-07-26T22:22:35.559Z,100543.66
2017-07-26T22:25:03.387Z,100549.84
2017-07-26T22:27:31.210Z,100548.44
2017-07-26T22:29:58.984Z,100552.02
2017-07-26T22:32:26.804Z,100550.12
2017-07-26T22:34:54.626Z,100552.14
2017-07-26T22:37:22.408Z,100546.75
2017-07-26T22:39:50.333Z,100544.47
2017-07-26T22:42:18.133Z,100549.65
2017-07-26T22:44:45.982Z,100538.83
2017-07-26T22:47:13.760Z,100545.14
2017-07-26T22:49:41.546Z,100546.86
2017-07-26T22:52:09.388Z,100545.51
2017-07-26T22:54:37.165Z,100544.11
2017-07-26T22:57:04.984Z,100546.28
2017-07-26T22:59:32.749Z,100556.64
2017-07-26T23:02:00.576Z,100549.40
2017-07-26T23:04:28.344Z,100546.60
2017-07-26T23:06:56.180Z,100553.73
2017-07-26T23:09:23.960Z,100552.91
2017-07-26T23:11:51.718Z,100547.78
2017-07-26T23:14:19.546Z,100543.69
2017-07-26T23:16:47.343Z,100540.23
2017-07-26T23:19:15.187Z,100546.53
2017-07-26T23:21:42.990Z,100543.33
2017-07-26T23:24:10.818Z,100542.40
2017-07-26T23:26:38.592Z,100545.45
2017-07-26T23:29:06.477Z,100544.66
2017-07-26T23:31:34.334Z,100539.70
2017-07-26T23:34:02.111Z,100543.44
2017-07-26T23:36:29.938Z,100546.13
2017-07-26T23:38:57.712Z,100540.47
2017-07-26T23:41:25.520Z,100538.03
2017-07-26T23:43:53.304Z,100540.93
2017-07-26T23:46:21.157Z,100541.38
2017-07-26T23:48:48.881Z,100539.81
2017-07-26T23:51:16.667Z,100539.18
2017-07-26T23:53:44.475Z,100540.95
2017-07-26T23:56:12.243Z,100540.81
2017-07-26T23:58:40.068Z,100535.37
